Time;durP1;ratioP1;P1;durP2;ratioP2;P2;SDS_P1;SDS_P2;PMS_P1;PMS_P2;Temp;Humidity;BMP_temperature;BMP_pressure;BME280_temperature;BME280_humidity;BME280_pressure;Samples;Min_cycle;Max_cycle;Signal;HPM_P1;HPM_P2
2022/12/15 00:38:41;;;;;;;27.75;15.20;;;;;;;-0.48;77.90;98397.94;346978;28;1257;-76
2022/12/15 00:38:52;;;;;;;29.55;15.48;;;;;;;-0.43;77.96;98402.13;346701;28;1058;-77
2022/12/15 00:39:06;;;;;;;29.73;15.32;;;;;;;-0.36;77.81;98389.31;347123;28;811;-77
2022/12/15 00:39:18;;;;;;;28.95;15.20;;;;;;;-0.34;77.67;98395.25;346673;28;1075;-77
2022/12/15 00:39:30;;;;;;;27.27;15.18;;;;;;;-0.30;77.99;98396.91;347036;28;714;-77
2022/12/15 00:39:42;;;;;;;27.27;15.18;;;;;;;-0.27;77.43;98399.44;346564;28;1170;-76
2022/12/15 00:39:57;;;;;;;28.50;15.38;;;;;;;-0.26;78.03;98396.03;345525;28;1054;-77
2022/12/15 00:40:10;;;;;;;30.38;15.95;;;;;;;-0.26;77.40;98403.72;345218;28;1250;-77
2022/12/15 00:40:22;;;;;;;33.38;16.88;;;;;;;-0.24;77.36;98391.78;345469;28;1054;-77
2022/12/15 00:40:34;;;;;;;34.92;16.63;;;;;;;-0.23;78.00;98403.66;345305;28;1019;-77
2022/12/15 00:40:46;;;;;;;34.92;16.10;;;;;;;-0.19;77.65;98404.47;345337;28;988;-76
2022/12/15 00:41:02;;;;;;;35.45;15.98;;;;;;;-0.18;78.02;98401.94;345247;28;1063;-77
2022/12/15 00:41:16;;;;;;;32.50;16.15;;;;;;;-0.15;77.95;98401.03;345314;28;1114;-77
2022/12/15 00:41:28;;;;;;;29.97;16.27;;;;;;;-0.14;77.41;98403.59;345149;28;908;-77
2022/12/15 00:41:41;;;;;;;29.60;16.13;;;;;;;-0.09;77.92;98406.94;345519;28;991;-76
2022/12/15 00:41:53;;;;;;;28.77;15.75;;;;;;;-0.06;77.56;98404.34;345202;28;1111;-77
2022/12/15 00:42:06;;;;;;;28.10;14.75;;;;;;;-0.04;77.65;98410.28;345298;28;1079;-78
2022/12/15 00:42:18;;;;;;;29.73;15.25;;;;;;;-0.02;77.42;98402.59;345320;28;1039;-77
2022/12/15 00:42:30;;;;;;;31.30;15.60;;;;;;;0.03;77.21;98410.22;345124;28;1218;-76
2022/12/15 00:42:42;;;;;;;29.70;15.52;;;;;;;0.03;77.63;98410.22;345444;28;1062;-76
2022/12/15 00:42:54;;;;;;;30.00;15.85;;;;;;;0.04;76.92;98404.25;343952;28;1696;-76
2022/12/15 00:43:10;;;;;;;29.75;15.68;;;;;;;0.05;76.80;98409.34;343873;28;1174;-77
2022/12/15 00:43:22;;;;;;;31.98;16.42;;;;;;;0.08;76.84;98403.34;344084;28;1071;-77
2022/12/15 00:43:35;;;;;;;30.63;16.33;;;;;;;0.10;77.06;98406.72;344199;28;1301;-77
2022/12/15 00:43:47;;;;;;;28.77;15.38;;;;;;;0.12;76.75;98410.13;343895;28;1114;-77
2022/12/15 00:43:59;;;;;;;26.20;14.60;;;;;;;0.15;77.23;98405.00;343753;28;1110;-78
2022/12/15 00:44:11;;;;;;;25.05;14.32;;;;;;;0.17;76.38;98409.22;343939;28;1095;-77
2022/12/15 00:44:31;;;;;;;28.58;15.20;;;;;;;0.17;76.29;98408.38;344124;28;1178;-77
2022/12/15 00:44:43;;;;;;;30.70;15.90;;;;;;;0.16;76.72;98411.78;343945;28;1188;-77
2022/12/15 00:44:55;;;;;;;30.30;15.77;;;;;;;0.17;76.21;98416.03;344209;28;1063;-77
2022/12/15 00:45:08;;;;;;;31.90;15.73;;;;;;;0.15;76.57;98407.53;345245;28;1037;-77
2022/12/15 00:45:20;;;;;;;31.88;15.57;;;;;;;0.17;76.59;98409.22;344241;28;1050;-76
2022/12/15 00:47:05;;;;;;;28.90;15.23;;;;;;;0.21;76.31;98415.16;344146;28;850;-77
2022/12/15 00:47:17;;;;;;;28.73;15.52;;;;;;;0.20;76.05;98418.53;344400;28;1497;-77
2022/12/15 00:47:32;;;;;;;27.27;15.63;;;;;;;0.23;75.95;98412.59;345009;28;1295;-77
2022/12/15 00:47:44;;;;;;;28.95;15.90;;;;;;;0.23;76.20;98418.53;344252;28;1260;-78
2022/12/15 00:47:55;;;;;;;30.02;15.88;;;;;;;0.24;76.22;98409.16;344302;28;1650;-77
2022/12/15 00:48:07;;;;;;;30.80;16.17;;;;;;;0.22;75.94;98416.81;344148;28;1078;-77
2022/12/15 00:48:19;;;;;;;28.65;15.73;;;;;;;0.21;76.00;98424.53;342719;28;1093;-77
2022/12/15 00:48:31;;;;;;;28.88;15.52;;;;;;;0.20;76.00;98413.44;342782;28;1218;-77
2022/12/15 00:48:43;;;;;;;29.33;15.88;;;;;;;0.20;75.93;98421.09;342723;28;1760;-77
2022/12/15 00:48:55;;;;;;;30.73;16.17;;;;;;;0.20;76.62;98413.44;341457;29;1095;-77
2022/12/15 00:50:50;;;;;;;31.63;15.95;;;;;;;0.22;76.68;98415.97;341349;29;1316;-77
2022/12/15 00:50:52;;;;;;;31.23;16.13;;;;;;;0.26;76.20;98426.16;344985;28;1139;-76
2022/12/15 00:51:04;;;;;;;31.23;16.92;;;;;;;0.25;76.74;98421.91;345784;28;1225;-78
2022/12/15 00:51:17;;;;;;;32.95;16.67;;;;;;;0.25;76.50;98421.06;345268;28;1914;-78
2022/12/15 01:20:18;;;;;;;27.60;15.07;;;;;;;0.68;74.41;98451.25;344937;28;1054;-77
2022/12/15 01:20:33;;;;;;;29.88;15.60;;;;;;;0.65;73.98;98452.16;345249;28;1193;-77
2022/12/15 01:21:00;;;;;;;29.08;15.38;;;;;;;0.62;74.49;98456.44;345211;28;1044;-77
2022/12/15 01:21:12;;;;;;;29.55;15.73;;;;;;;0.57;74.28;98453.94;345092;28;1150;-77
2022/12/15 01:21:24;;;;;;;29.95;15.65;;;;;;;0.59;74.46;98457.34;345098;28;1180;-76
2022/12/15 01:21:36;;;;;;;29.08;15.45;;;;;;;0.57;73.95;98459.06;344983;28;1076;-76
2022/12/15 01:21:48;;;;;;;31.45;15.88;;;;;;;0.55;74.47;98450.56;345310;28;1047;-76
2022/12/15 01:22:00;;;;;;;30.33;15.88;;;;;;;0.58;74.92;98450.50;344015;28;1049;-75
2022/12/15 01:22:12;;;;;;;27.30;15.68;;;;;;;0.58;74.14;98460.75;343945;28;1185;-77
2022/12/15 01:22:24;;;;;;;26.40;14.90;;;;;;;0.57;74.96;98457.34;343605;28;1012;-78
2022/12/15 01:22:37;;;;;;;27.65;14.80;;;;;;;0.59;74.35;98457.34;342469;28;1011;-77
2022/12/15 01:22:58;;;;;;;25.95;14.45;;;;;;;0.58;74.20;98451.38;342713;28;1078;-78
2022/12/15 01:23:21;;;;;;;29.38;16.05;;;;;;;0.59;74.45;98457.34;342682;28;1180;-78
2022/12/15 01:23:34;;;;;;;28.63;15.70;;;;;;;0.59;75.21;98457.34;342398;28;1090;-77
2022/12/15 01:23:46;;;;;;;28.52;16.05;;;;;;;0.58;74.44;98455.63;342465;28;1105;-76
2022/12/15 01:23:58;;;;;;;29.52;16.13;;;;;;;0.58;74.88;98450.50;342720;28;1275;-78
2022/12/15 01:24:10;;;;;;;32.90;16.73;;;;;;;0.61;74.96;98455.59;343980;28;1008;-76
2022/12/15 01:24:23;;;;;;;31.70;16.65;;;;;;;0.61;74.69;98449.66;344267;28;1035;-78
2022/12/15 01:24:35;;;;;;;28.20;16.17;;;;;;;0.61;75.03;98450.50;344135;28;1063;-76
2022/12/15 01:24:47;;;;;;;27.42;15.48;;;;;;;0.58;75.24;98453.06;343919;28;1079;-77
2022/12/15 01:24:59;;;;;;;27.63;15.20;;;;;;;0.58;74.54;98456.50;343803;28;1266;-77
2022/12/15 01:25:11;;;;;;;28.67;15.73;;;;;;;0.57;74.54;98456.50;343861;28;1075;-77
2022/12/15 01:25:24;;;;;;;29.23;15.88;;;;;;;0.57;74.75;98453.94;343732;28;1350;-77
2022/12/15 01:25:38;;;;;;;29.70;15.60;;;;;;;0.57;74.68;98459.06;342410;28;1134;-77
2022/12/15 01:25:51;;;;;;;30.42;15.80;;;;;;;0.53;75.22;98458.25;342517;28;1245;-76
2022/12/15 01:26:04;;;;;;;28.95;15.82;;;;;;;0.50;74.63;98463.38;343059;28;1055;-77
2022/12/15 01:26:16;;;;;;;26.25;15.30;;;;;;;0.51;74.61;98459.13;343801;28;1286;-76
2022/12/15 01:26:28;;;;;;;27.10;15.43;;;;;;;0.57;75.22;98464.19;344101;28;1203;-76
2022/12/15 01:26:40;;;;;;;28.17;15.48;;;;;;;0.55;75.02;98460.78;343656;28;1064;-77
2022/12/15 01:26:52;;;;;;;29.13;15.75;;;;;;;0.55;74.69;98458.22;343675;28;1166;-77
2022/12/15 01:27:04;;;;;;;28.38;15.23;;;;;;;0.56;75.10;98458.22;344123;28;1034;-76
2022/12/15 01:27:16;;;;;;;28.77;15.68;;;;;;;0.58;74.86;98463.28;344358;28;1047;-77
2022/12/15 01:27:28;;;;;;;29.63;15.75;;;;;;;0.60;74.93;98459.00;343698;28;1052;-76
2022/12/15 01:27:40;;;;;;;29.60;16.08;;;;;;;0.61;74.31;98460.72;343986;28;1223;-77
2022/12/15 01:27:52;;;;;;;29.40;15.82;;;;;;;0.63;74.23;98456.44;344032;28;1175;-76
2022/12/15 01:28:04;;;;;;;29.00;15.82;;;;;;;0.63;74.23;98461.53;343947;28;1197;-77
2022/12/15 01:28:18;;;;;;;29.95;16.00;;;;;;;0.64;74.28;98463.22;343966;28;1192;-76
2022/12/15 01:28:30;;;;;;;31.13;16.20;;;;;;;0.64;74.90;98463.22;344201;28;1034;-77
2022/12/15 01:28:42;;;;;;;30.35;16.17;;;;;;;0.68;74.10;98461.47;343775;28;1054;-76
2022/12/15 01:28:54;;;;;;;30.10;16.25;;;;;;;0.63;74.64;98463.25;343913;28;1035;-78
2022/12/15 01:29:06;;;;;;;29.77;15.90;;;;;;;0.63;74.57;98460.72;344075;28;1118;-77
2022/12/15 01:29:18;;;;;;;29.30;15.55;;;;;;;0.66;74.52;98468.31;343970;28;1047;-77
2022/12/15 01:29:30;;;;;;;28.15;15.30;;;;;;;0.63;74.57;98453.03;343994;28;1141;-77
2022/12/15 01:29:42;;;;;;;27.95;15.55;;;;;;;0.59;74.63;98467.56;344524;28;1011;-76
2022/12/15 01:29:54;;;;;;;29.00;15.82;;;;;;;0.58;74.90;98466.72;344368;28;1023;-77
2022/12/15 01:30:08;;;;;;;29.77;16.15;;;;;;;0.56;74.50;98465.91;344116;28;1019;-77
2022/12/15 01:30:25;;;;;;;29.40;15.77;;;;;;;0.55;74.82;98463.34;342502;28;1270;-75
2022/12/15 01:30:37;;;;;;;27.58;14.90;;;;;;;0.55;74.65;98466.75;342569;28;1088;-77
2022/12/15 01:30:50;;;;;;;26.20;14.77;;;;;;;0.54;74.38;98465.06;342507;28;1069;-77
2022/12/15 01:31:08;;;;;;;28.75;15.95;;;;;;;0.58;74.68;98463.28;342519;28;1024;-76
2022/12/15 01:31:20;;;;;;;31.63;16.10;;;;;;;0.50;75.06;98463.38;342511;28;1149;-77
2022/12/15 01:31:32;;;;;;;31.23;15.77;;;;;;;0.51;74.98;98466.81;342527;28;1033;-77
2022/12/15 01:31:44;;;;;;;32.03;16.05;;;;;;;0.51;74.77;98464.25;342453;28;1148;-77
2022/12/15 01:32:00;;;;;;;29.60;15.63;;;;;;;0.50;74.80;98462.53;343523;28;1060;-77
2022/12/15 01:32:12;;;;;;;27.83;15.73;;;;;;;0.52;75.11;98466.75;343868;28;1169;-77
2022/12/15 01:32:24;;;;;;;29.13;16.35;;;;;;;0.52;74.83;98466.75;343202;28;726;-78
2022/12/15 01:32:36;;;;;;;30.10;16.38;;;;;;;0.51;75.29;98464.25;342704;28;1030;-76
2022/12/15 01:32:56;;;;;;;29.27;15.57;;;;;;;0.45;74.98;98464.31;342787;28;1285;-76
2022/12/15 01:33:08;;;;;;;33.00;15.52;;;;;;;0.45;74.88;98464.31;342515;28;1094;-76
2022/12/15 01:33:20;;;;;;;31.45;15.50;;;;;;;0.49;74.56;98463.41;342506;28;2052;-77
2022/12/15 01:33:32;;;;;;;30.02;15.15;;;;;;;0.51;74.58;98464.25;341074;29;1044;-76
2022/12/15 01:33:44;;;;;;;27.55;14.98;;;;;;;0.52;75.40;98461.66;340072;29;1014;-77
2022/12/15 01:33:56;;;;;;;28.48;15.32;;;;;;;0.50;74.75;98467.66;341207;29;1135;-78
2022/12/15 01:34:08;;;;;;;28.20;15.60;;;;;;;0.46;75.03;98466.00;341262;28;1173;-77
2022/12/15 01:34:21;;;;;;;28.98;15.73;;;;;;;0.49;74.58;98465.97;340773;29;1154;-77
2022/12/15 01:34:33;;;;;;;31.60;16.15;;;;;;;0.47;74.86;98468.53;342389;28;1068;-77
2022/12/15 01:34:45;;;;;;;31.67;16.40;;;;;;;0.41;75.34;98468.59;342309;28;1208;-77
2022/12/15 01:34:57;;;;;;;31.23;16.30;;;;;;;0.41;75.05;98463.50;342809;28;1062;-77
2022/12/15 01:35:10;;;;;;;28.33;15.60;;;;;;;0.38;75.38;98466.06;341203;29;1272;-77
2022/12/15 01:35:22;;;;;;;28.88;15.80;;;;;;;0.37;74.86;98466.94;341147;29;1121;-77
2022/12/15 01:35:33;;;;;;;30.90;15.85;;;;;;;0.36;75.29;98473.78;341728;28;1108;-77
2022/12/15 01:36:00;;;;;;;30.40;15.57;;;;;;;0.41;75.40;98467.78;342623;28;1319;-77
2022/12/15 01:36:13;;;;;;;29.52;15.52;;;;;;;0.38;75.74;98466.06;343026;28;1169;-77
2022/12/15 01:36:25;;;;;;;30.38;15.75;;;;;;;0.35;75.80;98464.41;343519;28;1166;-77
2022/12/15 01:36:36;;;;;;;30.55;15.88;;;;;;;0.37;75.24;98467.78;343914;28;1168;-77
2022/12/15 01:36:48;;;;;;;29.98;16.33;;;;;;;0.39;75.42;98471.16;343886;28;1067;-77
2022/12/15 01:37:00;;;;;;;30.90;16.30;;;;;;;0.35;74.94;98466.97;343696;28;1126;-77
2022/12/15 01:37:12;;;;;;;30.67;15.73;;;;;;;0.34;75.85;98469.53;343730;28;1694;-78
2022/12/15 01:37:24;;;;;;;29.30;15.48;;;;;;;0.33;74.87;98468.69;345176;28;1159;-77
2022/12/15 01:37:36;;;;;;;30.67;15.63;;;;;;;0.31;75.41;98467.84;344061;28;1272;-78
2022/12/15 01:37:48;;;;;;;30.25;15.50;;;;;;;0.31;75.19;98465.28;343929;28;1098;-77
2022/12/15 01:38:01;;;;;;;30.25;15.63;;;;;;;0.32;75.69;98469.56;343838;28;1043;-77
2022/12/15 01:38:13;;;;;;;30.23;15.98;;;;;;;0.31;75.24;98467.84;343709;28;1075;-77
2022/12/15 01:38:26;;;;;;;33.30;16.42;;;;;;;0.32;75.85;98467.00;344058;28;1367;-77
2022/12/15 01:38:38;;;;;;;30.73;15.80;;;;;;;0.37;75.34;98467.78;343814;28;1051;-77
2022/12/15 01:38:50;;;;;;;28.83;15.18;;;;;;;0.39;75.06;98466.06;343863;28;1055;-78
2022/12/15 01:39:05;;;;;;;28.83;15.43;;;;;;;0.38;75.16;98464.38;343707;28;1130;-77
2022/12/15 01:39:17;;;;;;;29.23;15.82;;;;;;;0.38;75.98;98469.50;344645;28;1396;-77
2022/12/15 01:40:43;;;;;;;29.10;15.68;;;;;;;0.35;75.94;98469.50;345319;28;1095;-77
2022/12/15 01:40:43;;;;;;;30.05;16.00;;;;;;;0.41;75.39;98471.16;344861;28;1067;-77
2022/12/15 01:41:02;;;;;;;29.27;15.93;;;;;;;0.37;75.72;98465.22;346874;28;1094;-77
2022/12/15 01:41:14;;;;;;;30.60;16.38;;;;;;;0.37;75.69;98466.94;346575;28;1011;-78
2022/12/15 01:41:26;;;;;;;31.00;16.02;;;;;;;0.37;75.69;98465.22;346354;28;1033;-77
2022/12/15 01:41:38;;;;;;;30.90;16.10;;;;;;;0.41;75.44;98468.59;346473;28;1104;-78
2022/12/15 01:41:50;;;;;;;33.42;16.30;;;;;;;0.36;75.28;98458.44;346501;28;1831;-77
2022/12/15 01:42:02;;;;;;;33.92;16.45;;;;;;;0.41;75.72;98462.66;346645;28;1031;-78
2022/12/15 01:42:14;;;;;;;30.20;15.85;;;;;;;0.44;75.47;98462.59;345636;28;1349;-77
2022/12/15 01:42:26;;;;;;;28.80;15.57;;;;;;;0.44;75.48;98457.50;345059;28;1035;-78
2022/12/15 01:42:38;;;;;;;28.02;15.48;;;;;;;0.46;75.74;98466.00;345347;28;1073;-77
2022/12/15 01:42:51;;;;;;;29.95;15.77;;;;;;;0.46;75.42;98461.72;345648;28;736;-78
2022/12/15 01:43:10;;;;;;;30.17;15.98;;;;;;;0.50;75.65;98467.66;345098;28;1079;-77
2022/12/15 01:43:25;;;;;;;30.35;16.52;;;;;;;0.53;75.11;98462.50;345467;28;1043;-77
2022/12/15 01:43:39;;;;;;;29.92;16.63;;;;;;;0.55;75.60;98466.75;345284;28;1198;-77
2022/12/15 01:43:51;;;;;;;28.25;15.98;;;;;;;0.57;75.09;98466.72;345273;28;1156;-76
2022/12/15 01:44:18;;;;;;;28.40;15.52;;;;;;;0.61;75.71;98465.84;345421;28;1027;-76
2022/12/15 01:44:30;;;;;;;27.00;15.63;;;;;;;0.63;74.94;98464.09;346431;28;1103;-77
2022/12/15 01:44:46;;;;;;;30.73;15.70;;;;;;;0.62;74.69;98467.50;346662;28;1074;-77
2022/12/15 01:45:22;;;;;;;33.42;15.77;;;;;;;0.69;74.71;98473.41;346701;28;1141;-77
2022/12/15 01:45:46;;;;;;;33.65;16.35;;;;;;;0.72;74.70;98469.09;344961;28;1195;-77
2022/12/15 01:46:02;;;;;;;30.05;15.02;;;;;;;0.75;74.57;98466.50;344950;28;1114;-77
2022/12/15 01:46:17;;;;;;;26.92;14.65;;;;;;;0.77;75.35;98466.50;345360;28;1019;-78
2022/12/15 01:46:29;;;;;;;28.23;15.35;;;;;;;0.76;75.07;98469.91;345047;28;1011;-77
2022/12/15 01:46:42;;;;;;;28.25;15.93;;;;;;;0.76;74.22;98469.91;345142;28;1209;-77
2022/12/15 01:46:55;;;;;;;26.45;15.80;;;;;;;0.77;74.84;98469.06;345213;28;1073;-77
2022/12/15 01:47:12;;;;;;;27.77;14.95;;;;;;;0.77;75.00;98467.34;345122;28;1093;-76
2022/12/15 01:47:26;;;;;;;27.88;14.63;;;;;;;0.78;75.02;98469.00;345218;28;1078;-77
2022/12/15 01:47:38;;;;;;;29.17;15.52;;;;;;;0.77;75.03;98475.00;345860;28;1072;-77
2022/12/15 01:47:53;;;;;;;29.80;16.08;;;;;;;0.76;75.07;98470.75;346669;28;1167;-77
2022/12/15 01:48:11;;;;;;;30.58;16.35;;;;;;;0.77;74.77;98472.44;346617;28;1115;-78
2022/12/15 01:48:44;;;;;;;29.48;15.93;;;;;;;0.78;74.42;98474.13;346370;28;938;-77
2022/12/15 01:49:10;;;;;;;26.95;15.27;;;;;;;0.79;74.14;98475.00;346480;28;1239;-77
2022/12/15 01:49:27;;;;;;;26.83;15.00;;;;;;;0.84;74.12;98469.81;346469;28;1118;-78
2022/12/15 01:49:41;;;;;;;27.80;14.95;;;;;;;0.86;74.70;98475.75;346401;28;1122;-78
2022/12/15 01:49:53;;;;;;;28.08;15.27;;;;;;;0.86;73.94;98475.75;346325;28;1016;-77
2022/12/15 01:50:12;;;;;;;28.67;15.98;;;;;;;0.88;74.75;98474.03;346237;28;1201;-78
2022/12/15 01:50:26;;;;;;;28.95;15.90;;;;;;;0.88;74.73;98474.03;345191;28;1034;-77
2022/12/15 01:50:43;;;;;;;31.05;15.50;;;;;;;0.88;73.96;98474.03;344824;28;1226;-77
2022/12/15 01:50:58;;;;;;;31.45;15.30;;;;;;;0.89;74.59;98475.75;344822;28;1017;-76
2022/12/15 01:51:34;;;;;;;30.83;15.75;;;;;;;0.90;74.40;98478.25;345371;28;1139;-77
2022/12/15 01:51:49;;;;;;;27.95;15.77;;;;;;;0.95;74.17;98475.66;344881;28;1068;-77
2022/12/15 01:52:05;;;;;;;28.35;15.93;;;;;;;0.97;74.06;98473.94;343573;28;1101;-75
2022/12/15 01:52:17;;;;;;;27.85;15.48;;;;;;;0.96;74.48;98473.06;343518;28;909;-78
2022/12/15 01:52:29;;;;;;;30.27;15.73;;;;;;;0.97;73.92;98469.66;342525;28;1096;-77
2022/12/15 01:52:41;;;;;;;31.35;15.55;;;;;;;0.97;74.46;98474.75;342141;28;1093;-77
2022/12/15 01:52:57;;;;;;;29.48;15.25;;;;;;;0.99;74.40;98472.19;342456;28;1096;-78
2022/12/15 01:53:11;;;;;;;29.55;15.20;;;;;;;0.99;73.77;98472.19;342777;28;1185;-77
2022/12/15 01:53:23;;;;;;;29.30;15.23;;;;;;;1.01;73.91;98470.47;342515;28;1053;-77
2022/12/15 01:54:00;;;;;;;28.63;14.98;;;;;;;1.06;73.71;98463.56;341078;29;1102;-74
2022/12/15 01:54:17;;;;;;;28.60;15.73;;;;;;;1.08;74.00;98466.94;342476;28;1391;-77
2022/12/15 01:54:32;;;;;;;26.98;15.07;;;;;;;1.09;73.42;98458.41;344165;28;857;-77
2022/12/15 01:54:52;;;;;;;26.40;14.75;;;;;;;1.11;73.42;98469.47;343761;28;1043;-78
2022/12/15 01:55:05;;;;;;;27.33;15.32;;;;;;;1.11;73.39;98459.22;342552;28;1026;-78
2022/12/15 01:55:19;;;;;;;27.73;14.95;;;;;;;1.11;73.49;98459.22;342297;28;1085;-75
2022/12/15 01:55:32;;;;;;;27.63;14.80;;;;;;;1.13;73.46;98456.66;342301;28;1147;-75
2022/12/15 01:55:45;;;;;;;27.00;14.77;;;;;;;1.13;73.56;98454.94;344185;28;1075;-77
2022/12/15 01:56:03;;;;;;;28.20;15.30;;;;;;;1.14;73.72;98454.06;343588;28;1275;-77
2022/12/15 01:56:17;;;;;;;27.33;15.05;;;;;;;1.14;73.13;98455.78;343492;28;1195;-77
2022/12/15 01:56:34;;;;;;;27.73;15.13;;;;;;;1.14;73.68;98450.66;343499;28;1051;-77
2022/12/15 01:56:53;;;;;;;28.40;15.35;;;;;;;1.14;73.25;98454.06;343600;28;1227;-78
2022/12/15 01:57:13;;;;;;;27.50;15.05;;;;;;;1.14;73.36;98453.22;344362;28;1433;-77
2022/12/15 01:57:30;;;;;;;26.58;15.20;;;;;;;1.11;73.60;98459.22;343634;28;1207;-77
2022/12/15 01:57:42;;;;;;;27.90;15.30;;;;;;;1.10;73.66;98457.53;343822;28;861;-77
2022/12/15 01:57:58;;;;;;;26.42;14.82;;;;;;;1.12;73.35;98452.41;343388;28;1055;-78
2022/12/15 01:58:14;;;;;;;27.13;15.07;;;;;;;1.13;73.22;98460.06;343714;28;1203;-77
2022/12/15 01:58:26;;;;;;;30.38;15.68;;;;;;;1.13;73.02;98454.94;343508;28;1120;-78
2022/12/15 01:58:42;;;;;;;29.73;15.52;;;;;;;1.10;73.37;98454.97;343526;28;1028;-77
2022/12/15 01:59:00;;;;;;;29.80;16.00;;;;;;;1.07;73.19;98462.69;343605;28;1667;-77
2022/12/15 01:59:20;;;;;;;29.85;16.27;;;;;;;1.07;73.02;98459.31;343498;28;1101;-77
2022/12/15 01:59:37;;;;;;;29.90;15.80;;;;;;;1.08;73.24;98455.84;343680;28;1114;-77
2022/12/15 01:59:53;;;;;;;29.95;16.20;;;;;;;1.08;73.50;98454.13;343578;28;1133;-77
2022/12/15 02:00:07;;;;;;;29.23;15.63;;;;;;;1.10;73.25;98454.13;343826;28;1063;-77
2022/12/15 02:00:19;;;;;;;28.95;15.27;;;;;;;1.11;72.83;98459.22;343510;28;1126;-77
2022/12/15 02:00:31;;;;;;;28.08;15.52;;;;;;;1.11;73.00;98456.66;343465;28;1080;-77
2022/12/15 02:00:43;;;;;;;27.88;15.43;;;;;;;1.14;73.61;98459.19;344145;28;763;-76
2022/12/15 02:00:56;;;;;;;28.83;15.48;;;;;;;1.13;72.96;98460.06;343522;28;1274;-76
2022/12/15 02:01:09;;;;;;;29.25;15.35;;;;;;;1.15;73.67;98457.47;342807;28;772;-77
2022/12/15 02:01:21;;;;;;;28.83;14.68;;;;;;;1.16;73.15;98457.44;342372;28;1276;-77
2022/12/15 02:01:34;;;;;;;29.00;14.30;;;;;;;1.15;73.22;98453.19;342748;28;1254;-76
2022/12/15 02:01:46;;;;;;;30.92;15.18;;;;;;;1.16;73.67;98449.75;342296;28;1068;-77
2022/12/15 02:02:01;;;;;;;28.90;15.80;;;;;;;1.17;72.97;98461.72;342370;28;1035;-78
2022/12/15 02:02:15;;;;;;;30.15;15.70;;;;;;;1.14;73.16;98460.91;341291;29;1187;-77
2022/12/15 02:02:29;;;;;;;29.33;14.90;;;;;;;1.14;73.42;98456.63;340920;29;1215;-75
2022/12/15 02:02:46;;;;;;;29.15;15.30;;;;;;;1.13;72.79;98454.94;341454;29;853;-77
2022/12/15 02:03:00;;;;;;;31.50;16.25;;;;;;;1.10;72.57;98464.38;341399;29;1058;-77
2022/12/15 02:03:13;;;;;;;30.98;16.50;;;;;;;1.03;73.23;98461.06;340762;29;865;-76
2022/12/15 02:03:25;;;;;;;28.83;16.25;;;;;;;0.92;73.47;98461.16;341261;29;1035;-77
2022/12/15 02:03:38;;;;;;;30.42;16.17;;;;;;;0.83;73.18;98461.31;341931;28;1024;-76
2022/12/15 02:03:50;;;;;;;32.47;15.93;;;;;;;0.83;73.52;98457.91;342313;28;1099;-76
2022/12/15 02:04:02;;;;;;;30.33;15.50;;;;;;;0.79;73.28;98459.66;342387;28;1674;-76
2022/12/15 02:04:18;;;;;;;28.67;15.85;;;;;;;0.83;73.65;98460.47;342847;28;1059;-76
2022/12/15 02:04:31;;;;;;;28.73;15.63;;;;;;;0.84;73.88;98467.25;343402;28;916;-76
2022/12/15 02:04:44;;;;;;;28.40;15.63;;;;;;;0.85;73.23;98461.28;343537;28;1039;-79
2022/12/15 02:04:58;;;;;;;29.02;16.02;;;;;;;0.83;73.63;98456.19;343528;28;1042;-77
2022/12/15 02:05:10;;;;;;;28.90;16.33;;;;;;;0.84;73.52;98454.47;343657;28;1127;-77
2022/12/15 02:05:23;;;;;;;28.95;16.27;;;;;;;0.77;74.05;98457.09;342530;28;1087;-79
2022/12/15 02:05:36;;;;;;;29.80;16.02;;;;;;;0.76;73.99;98455.41;342557;28;1209;-77
2022/12/15 02:05:48;;;;;;;29.35;16.10;;;;;;;0.75;74.19;98458.84;342492;28;1096;-77
2022/12/15 02:06:01;;;;;;;28.33;15.98;;;;;;;0.76;74.38;98463.06;342288;28;1055;-77
2022/12/15 02:06:14;;;;;;;29.33;16.25;;;;;;;0.73;73.94;98460.56;342409;28;1056;-77
2022/12/15 02:06:28;;;;;;;30.30;16.45;;;;;;;0.71;74.19;98462.31;342585;28;1118;-77
2022/12/15 02:06:40;;;;;;;30.05;16.23;;;;;;;0.71;74.19;98457.19;343581;28;1071;-77
2022/12/15 02:06:52;;;;;;;30.30;16.40;;;;;;;0.70;74.26;98465.72;343598;28;1310;-77
2022/12/15 02:07:04;;;;;;;29.83;15.88;;;;;;;0.71;74.05;98459.75;343502;28;1055;-77
2022/12/15 02:07:16;;;;;;;28.77;15.98;;;;;;;0.61;73.94;98459.88;343669;28;1051;-77
2022/12/15 02:07:28;;;;;;;30.80;16.02;;;;;;;0.64;74.53;98460.66;344866;28;1335;-77
2022/12/15 02:07:41;;;;;;;31.60;16.27;;;;;;;0.43;74.17;98471.16;343565;28;1096;-77
2022/12/15 02:07:53;;;;;;;30.50;16.02;;;;;;;0.35;74.00;98464.41;343547;28;1072;-76
2022/12/15 02:08:06;;;;;;;32.30;16.50;;;;;;;0.35;74.22;98468.66;343781;28;1063;-75
2022/12/15 02:08:18;;;;;;;32.97;16.75;;;;;;;0.31;74.66;98464.47;343382;28;1074;-77
2022/12/15 02:08:30;;;;;;;31.55;16.70;;;;;;;0.32;74.57;98468.69;343760;28;1437;-77
2022/12/15 02:08:45;;;;;;;31.45;16.45;;;;;;;0.30;74.39;98463.63;343789;28;1217;-77
2022/12/15 02:08:59;;;;;;;33.15;17.05;;;;;;;0.34;74.92;98472.06;343418;28;1068;-77
2022/12/15 02:09:12;;;;;;;33.13;16.95;;;;;;;0.26;74.13;98471.31;343800;28;997;-77
2022/12/15 02:09:26;;;;;;;32.38;16.30;;;;;;;0.29;74.72;98473.84;343775;28;1180;-76
2022/12/15 02:09:38;;;;;;;31.48;16.17;;;;;;;0.30;74.97;98466.19;343600;28;1080;-75
2022/12/15 02:09:54;;;;;;;31.77;16.52;;;;;;;0.35;74.97;98469.50;345075;28;1075;-77
2022/12/15 02:10:09;;;;;;;32.25;16.33;;;;;;;0.37;74.47;98467.78;344812;28;1059;-77
2022/12/15 02:10:27;;;;;;;30.13;15.70;;;;;;;0.42;74.52;98469.44;345041;28;1059;-77
2022/12/15 02:11:17;;;;;;;29.42;16.13;;;;;;;0.49;74.65;98465.97;345168;28;1303;-77
2022/12/15 02:11:52;;;;;;;30.40;15.95;;;;;;;0.58;74.68;98465.84;340692;29;1151;-77
2022/12/15 02:12:28;;;;;;;28.17;15.73;;;;;;;0.61;74.11;98460.72;334501;29;1242;-77
2022/12/15 02:12:40;;;;;;;27.75;15.70;;;;;;;0.51;73.10;98461.69;343530;28;1074;-77
2022/12/15 02:13:18;;;;;;;29.77;15.90;;;;;;;0.45;72.63;98464.31;343724;28;1186;-77
2022/12/15 02:14:05;;;;;;;31.48;16.55;;;;;;;0.46;72.84;98466.00;343752;28;1064;-77
2022/12/15 02:14:52;;;;;;;28.60;15.15;;;;;;;0.36;73.36;98465.25;345051;28;1324;-77
2022/12/15 02:15:16;;;;;;;30.50;16.40;;;;;;;0.31;72.87;98462.75;345251;28;1018;-76
2022/12/15 02:15:39;;;;;;;30.52;16.13;;;;;;;0.31;73.42;98461.91;344946;28;1150;-76
2022/12/15 02:16:17;;;;;;;30.63;15.38;;;;;;;0.32;73.88;98464.44;345132;28;1039;-76
2022/12/15 02:16:40;;;;;;;33.00;17.15;;;;;;;0.35;73.89;98454.19;345015;28;1279;-76
2022/12/15 02:17:20;;;;;;;31.25;16.48;;;;;;;0.39;73.85;98463.50;345232;28;1135;-76
2022/12/15 02:17:43;;;;;;;30.95;15.95;;;;;;;0.46;74.58;98459.16;343210;28;1278;-77
2022/12/15 02:18:00;;;;;;;28.65;15.73;;;;;;;0.46;74.43;98461.72;343686;28;1314;-77
2022/12/15 02:18:26;;;;;;;27.63;15.82;;;;;;;0.47;74.82;98457.47;343975;28;861;-77
2022/12/15 02:19:16;;;;;;;28.27;15.82;;;;;;;0.49;74.68;98453.19;342490;28;1162;-75
2022/12/15 02:19:58;;;;;;;27.13;15.57;;;;;;;0.54;74.72;98459.09;337043;29;1116;-77
2022/12/15 02:20:39;;;;;;;32.50;15.98;;;;;;;0.37;75.34;98457.56;342232;28;1229;-77
2022/12/15 02:21:01;;;;;;;32.03;16.77;;;;;;;0.29;75.37;98459.34;343405;28;1251;-77
2022/12/15 02:21:37;;;;;;;31.58;16.80;;;;;;;0.26;75.41;98459.38;343626;28;1063;-77
2022/12/15 02:22:05;;;;;;;28.95;16.38;;;;;;;0.25;75.71;98462.81;345048;28;1163;-76
2022/12/15 02:22:28;;;;;;;33.05;16.25;;;;;;;0.22;75.78;98460.25;345037;28;1191;-75
2022/12/15 02:22:57;;;;;;;33.35;16.88;;;;;;;-0.18;76.60;98458.09;345167;28;1047;-75
2022/12/15 02:23:39;;;;;;;30.60;16.40;;;;;;;-0.25;77.56;98464.97;345005;28;1252;-76
2022/12/15 02:24:12;;;;;;;30.27;16.55;;;;;;;-0.25;77.13;98456.44;343823;28;1054;-75
2022/12/15 02:24:54;;;;;;;30.85;16.10;;;;;;;-0.23;77.53;98464.94;343858;28;1089;-77
2022/12/15 02:25:22;;;;;;;31.35;16.23;;;;;;;-0.24;76.18;98464.09;342369;28;1096;-77
2022/12/15 02:25:52;;;;;;;30.23;16.27;;;;;;;-0.17;76.41;98464.91;342400;28;1249;-77
2022/12/15 02:26:28;;;;;;;32.35;16.48;;;;;;;-0.20;75.82;98467.50;343654;28;1190;-77
2022/12/15 02:27:17;;;;;;;33.15;17.10;;;;;;;-0.26;76.86;98465.00;343801;28;1150;-77
2022/12/15 02:27:33;;;;;;;32.25;17.10;;;;;;;-0.25;76.19;98466.66;343608;28;1206;-77
2022/12/15 02:28:03;;;;;;;30.45;15.95;;;;;;;-0.21;76.19;98464.06;343793;28;1070;-77